Fesco Vladimir — 5BSL2 — position and weather

sailwx.info

Track history (hours):
 
Tides and Currents Weather Stations Pressure Air Temp Water Temp Dewpoint Dewpoint Depression Visibility Wind Speed Wind Dir Waves Ship Positions

Fesco Vladimir

Last reported at 2015-Jul-03 02:32 UTC. Time now 2015-Jul-03 15:41 UTC.
Position N 33°48' W 076°49'.

Length 184 m; draft 6.7 m.

Type: Ship. MMSI: 209777000.

Date/timePositionNaut miles runAvg speedWind from/ knotsBaromVisibWave heightAir tempDewpointWater temp
2015-Jul-03 02:32N 33°48' W 076°49'44 8.3
2015-Jul-02 21:10N 34°21' W 076°14'913.8
2015-Jul-02 20:32N 34°27' W 076°06'1513.9
2015-Jul-02 19:26N 34°37' W 075°52'1713.9
2015-Jul-02 18:11N 34°49' W 075°37'18613.5
2015-Jul-02 04:26N 37°53' W 076°10'5718.0
2015-Jul-02 01:14N 38°49' W 076°25'1217.7
2015-Jul-02 00:33N 39°01' W 076°22'1312.8
2015-Jul-01 23:33N 39°12' W 076°30'4 3.8
2015-Jul-01 22:31N 39°15' W 076°33'0 0.0
2015-Jul-01 21:28N 39°15' W 076°33'0 0.0
2015-Jul-01 20:31N 39°15' W 076°33'0 0.0
2015-Jul-01 19:31N 39°15' W 076°33'0 0.0
2015-Jul-01 18:32N 39°15' W 076°33'0 0.0
2015-Jul-01 17:31N 39°15' W 076°33'0 0.0
2015-Jul-01 16:31N 39°15' W 076°33'0 0.1
2015-Jul-01 15:34N 39°15' W 076°33'7 7.1
2015-Jul-01 14:33N 39°11' W 076°26'1514.8
2015-Jul-01 13:33N 38°56' W 076°23'1717.4
2015-Jul-01 12:34N 38°39' W 076°25'1716.8
2015-Jul-01 11:33N 38°22' W 076°19'1817.6
2015-Jul-01 10:34N 38°05' W 076°13'1717.3
2015-Jul-01 09:34N 37°48' W 076°10'6711.1
2015-Jul-01 03:33N 36°58' W 075°15'1515.5
2015-Jul-01 02:33N 37°07' W 074°60'1515.3
2015-Jul-01 01:33N 37°19' W 074°49'1815.9
2015-Jul-01 00:26N 37°36' W 074°40'1416.1
2015-Jun-30 23:33N 37°48' W 074°32'1615.9
2015-Jun-30 22:33N 38°03' W 074°23'1615.6
2015-Jun-30 21:34N 38°18' W 074°17'1615.6
2015-Jun-30 20:33N 38°33' W 074°12'1615.8
2015-Jun-30 19:33N 38°48' W 074°08'1616.2
2015-Jun-30 18:33N 39°04' W 074°04'1616.1
2015-Jun-30 17:33N 39°20' W 074°00'1616.3
2015-Jun-30 16:33N 39°36' W 073°56'1616.3
2015-Jun-30 15:33N 39°52' W 073°52'1616.4
2015-Jun-30 14:33N 40°08' W 073°50'1716.6
2015-Jun-30 13:33N 40°25' W 073°49'1413.6
2015-Jun-30 12:33N 40°34' W 074°02'7 7.4
2015-Jun-30 11:34N 40°39' W 074°09'2 1.7
2015-Jun-30 10:31N 40°41' W 074°09'0 0.0
2015-Jun-30 09:31N 40°41' W 074°09'0 0.0
2015-Jun-30 08:31N 40°41' W 074°09'0 0.0
2015-Jun-30 07:31N 40°41' W 074°09'0 0.0
2015-Jun-30 06:31N 40°41' W 074°09'0 0.0
2015-Jun-30 05:31N 40°41' W 074°09'0 0.0
2015-Jun-30 04:31N 40°41' W 074°09'0 0.0
2015-Jun-30 03:31N 40°41' W 074°09'0 0.0
2015-Jun-30 02:31N 40°41' W 074°09'0 0.0
2015-Jun-30 01:31N 40°41' W 074°09'0 0.0
2015-Jun-30 00:31N 40°41' W 074°09'0 0.0
2015-Jun-29 23:31N 40°41' W 074°09'0 0.0
2015-Jun-29 22:31N 40°41' W 074°09'0 0.0
2015-Jun-29 21:31N 40°41' W 074°09'0 0.0
2015-Jun-29 20:31N 40°41' W 074°09'0 0.0
2015-Jun-29 19:31N 40°41' W 074°09'0 0.0
2015-Jun-29 18:31N 40°41' W 074°09'0 0.0
2015-Jun-29 17:31N 40°41' W 074°09'0 0.0
2015-Jun-29 16:31N 40°41' W 074°09'0 0.0
2015-Jun-29 15:31N 40°41' W 074°09'0 0.0
2015-Jun-29 14:31N 40°41' W 074°09'0 0.0
2015-Jun-29 13:28N 40°41' W 074°09'0 0.0
2015-Jun-29 12:33N 40°41' W 074°09'3 3.1
2015-Jun-29 11:33N 40°39' W 074°07'5 5.4
2015-Jun-29 10:33N 40°35' W 074°02'7 6.6
2015-Jun-29 09:33N 40°30' W 073°56'9 8.6
2015-Jun-29 08:33N 40°27' W 073°45'3 3.1
2015-Jun-29 07:33N 40°27' W 073°41'1211.5
2015-Jun-29 06:29N 40°28' W 073°25'2915.0
2015-Jun-29 04:32N 40°30' W 072°47'1515.8
2015-Jun-29 03:33N 40°31' W 072°26'1616.5
2015-Jun-29 02:33N 40°31' W 072°05'1616.5
2015-Jun-29 01:33N 40°31' W 071°43'1616.1
2015-Jun-29 00:33N 40°32' W 071°22'1515.4
2015-Jun-28 23:33N 40°32' W 071°02'1515.3
2015-Jun-28 22:33N 40°32' W 070°42'1515.1
2015-Jun-28 21:33N 40°33' W 070°22'1515.0
2015-Jun-28 20:33N 40°33' W 070°02'1615.4
2015-Jun-28 19:32N 40°34' W 069°41'  
Track history (hours):
 
Tides and Currents Weather Stations Pressure Air Temp Water Temp Dewpoint Dewpoint Depression Visibility Wind Speed Wind Dir Waves Ship Positions

Fesco Vladimir

Last reported at 2015-Jul-03 02:32 UTC. Time now 2015-Jul-03 15:41 UTC.
Position N 33°48' W 076°49'.

Length 184 m; draft 6.7 m.

Type: Ship. MMSI: 209777000.

Date/timePositionNaut miles runAvg speedWind from/ knotsBaromVisibWave heightAir tempDewpointWater temp
2015-Jul-03 02:32N 33°48' W 076°49'44 8.3
2015-Jul-02 21:10N 34°21' W 076°14'913.8
2015-Jul-02 20:32N 34°27' W 076°06'1513.9
2015-Jul-02 19:26N 34°37' W 075°52'1713.9
2015-Jul-02 18:11N 34°49' W 075°37'18613.5
2015-Jul-02 04:26N 37°53' W 076°10'5718.0
2015-Jul-02 01:14N 38°49' W 076°25'1217.7
2015-Jul-02 00:33N 39°01' W 076°22'1312.8
2015-Jul-01 23:33N 39°12' W 076°30'4 3.8
2015-Jul-01 22:31N 39°15' W 076°33'0 0.0
2015-Jul-01 21:28N 39°15' W 076°33'0 0.0
2015-Jul-01 20:31N 39°15' W 076°33'0 0.0
2015-Jul-01 19:31N 39°15' W 076°33'0 0.0
2015-Jul-01 18:32N 39°15' W 076°33'0 0.0
2015-Jul-01 17:31N 39°15' W 076°33'0 0.0
2015-Jul-01 16:31N 39°15' W 076°33'0 0.1
2015-Jul-01 15:34N 39°15' W 076°33'7 7.1
2015-Jul-01 14:33N 39°11' W 076°26'1514.8
2015-Jul-01 13:33N 38°56' W 076°23'1717.4
2015-Jul-01 12:34N 38°39' W 076°25'1716.8
2015-Jul-01 11:33N 38°22' W 076°19'1817.6
2015-Jul-01 10:34N 38°05' W 076°13'1717.3
2015-Jul-01 09:34N 37°48' W 076°10'6711.1
2015-Jul-01 03:33N 36°58' W 075°15'1515.5
2015-Jul-01 02:33N 37°07' W 074°60'1515.3
2015-Jul-01 01:33N 37°19' W 074°49'1815.9
2015-Jul-01 00:26N 37°36' W 074°40'1416.1
2015-Jun-30 23:33N 37°48' W 074°32'1615.9
2015-Jun-30 22:33N 38°03' W 074°23'1615.6
2015-Jun-30 21:34N 38°18' W 074°17'1615.6
2015-Jun-30 20:33N 38°33' W 074°12'1615.8
2015-Jun-30 19:33N 38°48' W 074°08'1616.2
2015-Jun-30 18:33N 39°04' W 074°04'1616.1
2015-Jun-30 17:33N 39°20' W 074°00'1616.3
2015-Jun-30 16:33N 39°36' W 073°56'1616.3
2015-Jun-30 15:33N 39°52' W 073°52'1616.4
2015-Jun-30 14:33N 40°08' W 073°50'1716.6
2015-Jun-30 13:33N 40°25' W 073°49'1413.6
2015-Jun-30 12:33N 40°34' W 074°02'7 7.4
2015-Jun-30 11:34N 40°39' W 074°09'2 1.7
2015-Jun-30 10:31N 40°41' W 074°09'0 0.0
2015-Jun-30 09:31N 40°41' W 074°09'0 0.0
2015-Jun-30 08:31N 40°41' W 074°09'0 0.0
2015-Jun-30 07:31N 40°41' W 074°09'0 0.0
2015-Jun-30 06:31N 40°41' W 074°09'0 0.0
2015-Jun-30 05:31N 40°41' W 074°09'0 0.0
2015-Jun-30 04:31N 40°41' W 074°09'0 0.0
2015-Jun-30 03:31N 40°41' W 074°09'0 0.0
2015-Jun-30 02:31N 40°41' W 074°09'0 0.0
2015-Jun-30 01:31N 40°41' W 074°09'0 0.0
2015-Jun-30 00:31N 40°41' W 074°09'0 0.0
2015-Jun-29 23:31N 40°41' W 074°09'0 0.0
2015-Jun-29 22:31N 40°41' W 074°09'0 0.0
2015-Jun-29 21:31N 40°41' W 074°09'0 0.0
2015-Jun-29 20:31N 40°41' W 074°09'0 0.0
2015-Jun-29 19:31N 40°41' W 074°09'0 0.0
2015-Jun-29 18:31N 40°41' W 074°09'0 0.0
2015-Jun-29 17:31N 40°41' W 074°09'0 0.0
2015-Jun-29 16:31N 40°41' W 074°09'0 0.0
2015-Jun-29 15:31N 40°41' W 074°09'0 0.0
2015-Jun-29 14:31N 40°41' W 074°09'0 0.0
2015-Jun-29 13:28N 40°41' W 074°09'0 0.0
2015-Jun-29 12:33N 40°41' W 074°09'3 3.1
2015-Jun-29 11:33N 40°39' W 074°07'5 5.4
2015-Jun-29 10:33N 40°35' W 074°02'7 6.6
2015-Jun-29 09:33N 40°30' W 073°56'9 8.6
2015-Jun-29 08:33N 40°27' W 073°45'3 3.1
2015-Jun-29 07:33N 40°27' W 073°41'1211.5
2015-Jun-29 06:29N 40°28' W 073°25'2915.0
2015-Jun-29 04:32N 40°30' W 072°47'1515.8
2015-Jun-29 03:33N 40°31' W 072°26'1616.5
2015-Jun-29 02:33N 40°31' W 072°05'1616.5
2015-Jun-29 01:33N 40°31' W 071°43'1616.1
2015-Jun-29 00:33N 40°32' W 071°22'1515.4
2015-Jun-28 23:33N 40°32' W 071°02'1515.3
2015-Jun-28 22:33N 40°32' W 070°42'1515.1
2015-Jun-28 21:33N 40°33' W 070°22'1515.0
2015-Jun-28 20:33N 40°33' W 070°02'1615.4
2015-Jun-28 19:32N 40°34' W 069°41'  

Dump ship's entire track history